Terminal Aerodrome Forecast
Issued by NWS Wichita, KS

Home | Current Version | Previous Version | Text Only | Print | Product List | Glossary Off
Versions: 1 2 3 4 5 6 7 8 9 10 11 12 13 14 15 16 17 18 19

000
FTUS43 KICT 281120
TAFICT
TAF
KICT 281120Z 2812/2912 18013KT P6SM SKC
     FM281530 19017G26KT P6SM SCT250
     FM290100 18011KT P6SM FEW070
     FM290400 36010KT P6SM VCTS SCT080CB=

USA.gov is the U.S. government's official web portal to all federal, state and local government web resources and services.